PANW Airport Information

Runway Information
Runway 14 Length 3281 ft width 98 ft
Elevation 364 ft Threshold 0 ft Heading 153
Runway 32 Length 3281 ft Width 98 ft
Elevation 321 ft Threshold 0 ft Heading 333
Airport Frequencies
Airport Navaids
Airport Weather Information & NOTAM
ADDS - METARS form results

(1655 UTC 17 August 2019)
Data provider http://aviationweather.gov/metar/data/
 
METAR text: PANW 171556Z AUTO 35007KT 10SM OVC020 13/12 A3041 RMK AO2 SLP312 T01330117
Conditions at: PANW (NEW STUYAHOK , AK, US) observed 1556 UTC 17 August 2019
Temperature: 13.3°C (56°F)
Dewpoint: 11.7°C (53°F) [RH = 90%]
Pressure (altimeter): 30.41 inches Hg (1029.9 mb)
[Sea-level pressure: 1031.2 mb]
Winds: from the N (350 degrees) at 8 MPH (7 knots; 3.6 m/s)
Visibility: 10 or more miles (16+ km)
Ceiling: 2000 feet AGL
Clouds: overcast cloud deck at 2000 feet AGL
Weather: automated observation with no human augmentation;
there may or may not be significant weather present at this time